createdAt,value
2017-06-14T00:00:45.270Z,0
2017-06-14T00:01:45.342Z,0
2017-06-14T00:02:45.551Z,0
2017-06-14T00:03:45.444Z,0
2017-06-14T00:04:45.439Z,0
2017-06-14T00:05:45.667Z,0
2017-06-14T00:06:45.484Z,0
2017-06-14T00:07:45.512Z,0
2017-06-14T00:08:45.544Z,0
2017-06-14T00:09:45.786Z,0
2017-06-14T00:10:45.615Z,0
2017-06-14T00:11:45.644Z,0
2017-06-14T00:12:45.745Z,0
2017-06-14T00:13:45.710Z,0
2017-06-14T00:14:45.747Z,0
2017-06-14T00:15:45.777Z,0
2017-06-14T00:16:45.826Z,0
2017-06-14T00:17:45.859Z,0
2017-06-14T00:18:45.840Z,0
2017-06-14T00:19:45.882Z,0
2017-06-14T00:20:45.971Z,0
2017-06-14T00:21:45.987Z,0
2017-06-14T00:22:46.042Z,0
2017-06-14T00:23:45.991Z,0
2017-06-14T00:24:46.089Z,0
2017-06-14T00:25:46.125Z,0
2017-06-14T00:26:46.168Z,0
2017-06-14T00:27:46.203Z,0
2017-06-14T00:28:46.215Z,0
2017-06-14T00:29:46.363Z,0
2017-06-14T00:30:46.325Z,0
2017-06-14T00:31:46.339Z,0
2017-06-14T00:32:46.381Z,0
2017-06-14T00:33:46.376Z,0
2017-06-14T00:34:46.449Z,0
2017-06-14T00:35:46.521Z,0
2017-06-14T00:36:46.477Z,0
2017-06-14T00:37:46.525Z,0
2017-06-14T00:38:46.547Z,0
2017-06-14T00:39:46.657Z,0
2017-06-14T00:40:46.650Z,0
2017-06-14T00:41:46.647Z,0
2017-06-14T00:42:46.674Z,0
2017-06-14T00:43:46.743Z,0
2017-06-14T00:44:46.778Z,0
2017-06-14T00:45:46.769Z,0
2017-06-14T00:46:46.877Z,0
2017-06-14T00:47:46.817Z,0
2017-06-14T00:48:46.887Z,0
2017-06-14T00:49:46.921Z,0
2017-06-14T00:50:46.918Z,0
2017-06-14T00:51:47.021Z,0
2017-06-14T00:52:47.097Z,0
2017-06-14T00:53:47.057Z,0
2017-06-14T00:54:47.054Z,0
2017-06-14T00:55:47.133Z,0
2017-06-14T00:56:47.146Z,0
2017-06-14T00:57:47.203Z,0
2017-06-14T00:58:47.212Z,0
2017-06-14T00:59:47.236Z,0
2017-06-14T01:01:19.079Z,0
2017-06-14T01:01:47.414Z,0
2017-06-14T01:02:47.505Z,0
2017-06-14T01:03:47.470Z,0
2017-06-14T01:04:47.523Z,0
2017-06-14T01:05:47.530Z,0
2017-06-14T01:06:47.575Z,0
2017-06-14T01:07:47.589Z,0
2017-06-14T01:08:47.630Z,0
2017-06-14T01:09:47.651Z,0
2017-06-14T01:10:47.686Z,0
2017-06-14T01:11:47.734Z,0
2017-06-14T01:12:47.764Z,0
2017-06-14T01:13:47.794Z,0
2017-06-14T01:14:47.865Z,0
2017-06-14T01:15:47.880Z,0
2017-06-14T01:16:47.918Z,0
2017-06-14T01:17:47.941Z,0
2017-06-14T01:18:47.939Z,0
2017-06-14T01:19:47.992Z,0
2017-06-14T01:20:48.020Z,0
2017-06-14T01:21:48.080Z,0
2017-06-14T01:22:48.093Z,0
2017-06-14T01:23:48.118Z,0
2017-06-14T01:24:48.295Z,0
2017-06-14T01:25:48.190Z,0
2017-06-14T01:26:48.195Z,0
2017-06-14T01:27:48.237Z,0
2017-06-14T01:28:48.298Z,0
2017-06-14T01:29:48.331Z,0
2017-06-14T01:30:48.356Z,0
2017-06-14T01:31:48.389Z,0
2017-06-14T01:32:48.474Z,0
2017-06-14T01:33:48.552Z,0
2017-06-14T01:34:48.490Z,0
2017-06-14T01:35:48.492Z,0
2017-06-14T01:36:48.545Z,0
2017-06-14T01:37:48.580Z,0
2017-06-14T01:38:48.639Z,0
2017-06-14T01:39:48.656Z,0
2017-06-14T01:40:48.711Z,0
2017-06-14T01:41:48.703Z,0
2017-06-14T01:42:48.758Z,0
2017-06-14T01:43:48.791Z,0
2017-06-14T01:44:48.853Z,0
2017-06-14T01:45:48.836Z,0
2017-06-14T01:46:48.905Z,0
2017-06-14T01:47:48.920Z,0
2017-06-14T01:48:48.941Z,0
2017-06-14T01:49:48.984Z,0
2017-06-14T01:50:49.022Z,0
2017-06-14T01:51:49.028Z,0
2017-06-14T01:52:49.073Z,0
2017-06-14T01:53:49.118Z,0
2017-06-14T01:54:49.162Z,0
2017-06-14T01:55:49.228Z,0
2017-06-14T01:56:49.207Z,0
2017-06-14T01:57:49.199Z,0
2017-06-14T01:58:49.294Z,0
2017-06-14T01:59:49.292Z,4
2017-06-14T02:00:49.392Z,4
2017-06-14T02:01:49.380Z,4
2017-06-14T02:02:49.577Z,0
2017-06-14T02:03:49.429Z,0
2017-06-14T02:04:49.484Z,4
2017-06-14T02:05:49.562Z,4
2017-06-14T02:06:49.555Z,0
2017-06-14T02:07:49.578Z,4
2017-06-14T02:08:49.586Z,4
2017-06-14T02:09:49.654Z,4
2017-06-14T02:10:49.683Z,4
2017-06-14T02:11:49.688Z,8
2017-06-14T02:12:49.733Z,8
2017-06-14T02:13:49.790Z,4
2017-06-14T02:14:49.783Z,8
2017-06-14T02:15:49.890Z,8
2017-06-14T02:16:49.872Z,8
2017-06-14T02:17:49.929Z,8
2017-06-14T02:18:49.956Z,12
2017-06-14T02:19:49.954Z,12
2017-06-14T02:20:50.001Z,16
2017-06-14T02:21:50.039Z,20
2017-06-14T02:22:50.040Z,20
2017-06-14T02:23:50.090Z,24
2017-06-14T02:24:50.102Z,24
2017-06-14T02:25:50.139Z,24
2017-06-14T02:26:50.182Z,32
2017-06-14T02:27:50.219Z,32
2017-06-14T02:28:50.263Z,36
2017-06-14T02:29:50.341Z,36
2017-06-14T02:30:50.342Z,44
2017-06-14T02:31:50.359Z,48
2017-06-14T02:32:50.393Z,52
2017-06-14T02:33:50.376Z,56
2017-06-14T02:34:50.421Z,60
2017-06-14T02:35:50.397Z,68
2017-06-14T02:36:50.455Z,72
2017-06-14T02:37:50.458Z,80
2017-06-14T02:38:50.539Z,84
2017-06-14T02:39:50.512Z,92
2017-06-14T02:40:50.584Z,100
2017-06-14T02:41:50.635Z,108
2017-06-14T02:42:50.610Z,116
2017-06-14T02:43:50.699Z,124
2017-06-14T02:44:50.712Z,132
2017-06-14T02:45:50.712Z,140
2017-06-14T02:46:50.800Z,152
2017-06-14T02:47:50.752Z,160
2017-06-14T02:48:50.837Z,172
2017-06-14T02:49:50.861Z,184
2017-06-14T02:50:50.885Z,200
2017-06-14T02:51:50.964Z,212
2017-06-14T02:52:50.993Z,224
2017-06-14T02:53:51.052Z,236
2017-06-14T02:54:51.063Z,252
2017-06-14T02:55:51.071Z,264
2017-06-14T02:56:51.141Z,276
2017-06-14T02:57:51.102Z,292
2017-06-14T02:58:51.141Z,308
2017-06-14T02:59:51.199Z,324
2017-06-14T03:00:51.215Z,340
2017-06-14T03:01:51.269Z,356
2017-06-14T03:02:51.326Z,372
2017-06-14T03:03:58.475Z,392
2017-06-14T03:04:51.389Z,404
2017-06-14T03:05:51.363Z,424
2017-06-14T03:06:51.385Z,440
2017-06-14T03:07:51.468Z,460
2017-06-14T03:08:51.574Z,480
2017-06-14T03:09:51.548Z,496
2017-06-14T03:10:51.541Z,516
2017-06-14T03:11:51.597Z,532
2017-06-14T03:12:51.650Z,552
2017-06-14T03:13:51.679Z,568
2017-06-14T03:14:51.674Z,584
2017-06-14T03:15:51.706Z,596
2017-06-14T03:16:51.756Z,604
2017-06-14T03:17:51.747Z,620
2017-06-14T03:18:51.812Z,636
2017-06-14T03:19:51.856Z,668
2017-06-14T03:20:51.838Z,704
2017-06-14T03:21:51.891Z,736
2017-06-14T03:22:51.925Z,756
2017-06-14T03:23:51.918Z,776
2017-06-14T03:24:52.012Z,788
2017-06-14T03:25:52.075Z,796
2017-06-14T03:26:52.106Z,796
2017-06-14T03:27:52.070Z,812
2017-06-14T03:28:52.123Z,844
2017-06-14T03:29:52.157Z,884
2017-06-14T03:30:52.215Z,924
2017-06-14T03:31:52.261Z,944
2017-06-14T03:32:52.285Z,964
2017-06-14T03:33:52.271Z,984
2017-06-14T03:34:52.322Z,1004
2017-06-14T03:35:52.354Z,1020
2017-06-14T03:36:52.401Z,1044
2017-06-14T03:37:52.456Z,1060
2017-06-14T03:38:52.427Z,1072
2017-06-14T03:39:52.525Z,1088
2017-06-14T03:40:52.542Z,1108
2017-06-14T03:41:52.522Z,1128
2017-06-14T03:42:52.617Z,1144
2017-06-14T03:43:52.619Z,1172
2017-06-14T03:44:52.650Z,1196
2017-06-14T03:45:52.695Z,1208
2017-06-14T03:46:52.724Z,1212
2017-06-14T03:47:52.778Z,1224
2017-06-14T03:48:52.766Z,1236
2017-06-14T03:49:52.780Z,1288
2017-06-14T03:50:52.819Z,1324
2017-06-14T03:51:52.866Z,1352
2017-06-14T03:52:52.892Z,1384
2017-06-14T03:53:52.959Z,1416
2017-06-14T03:54:52.919Z,1432
2017-06-14T03:55:52.991Z,1452
2017-06-14T03:56:53.038Z,1480
2017-06-14T03:57:53.050Z,1500
2017-06-14T03:58:53.074Z,1512
2017-06-14T03:59:53.157Z,1544
2017-06-14T04:00:53.174Z,1568
2017-06-14T04:01:53.195Z,1596
2017-06-14T04:02:53.250Z,1640
2017-06-14T04:03:53.286Z,1688
2017-06-14T04:04:53.332Z,1760
2017-06-14T04:05:53.318Z,1832
2017-06-14T04:06:53.358Z,1940
2017-06-14T04:07:53.384Z,2092
2017-06-14T04:08:53.446Z,2324
2017-06-14T04:09:53.470Z,2504
2017-06-14T04:10:53.518Z,2980
2017-06-14T04:11:53.533Z,3924
2017-06-14T04:12:53.556Z,5648
2017-06-14T04:13:53.610Z,6916
2017-06-14T04:14:53.644Z,7548
2017-06-14T04:15:53.646Z,7468
2017-06-14T04:16:53.685Z,6600
2017-06-14T04:17:53.717Z,6260
2017-06-14T04:18:53.784Z,6176
2017-06-14T04:19:53.784Z,5360
2017-06-14T04:20:53.823Z,5020
2017-06-14T04:21:53.855Z,5748
2017-06-14T04:22:53.864Z,7448
2017-06-14T04:23:53.947Z,8428
2017-06-14T04:24:53.926Z,8792
2017-06-14T04:25:53.969Z,8968
2017-06-14T04:26:54.061Z,8952
2017-06-14T04:27:54.085Z,9104
2017-06-14T04:28:54.115Z,4592
2017-06-14T04:29:54.134Z,7376
2017-06-14T04:30:54.166Z,6036
2017-06-14T04:31:54.196Z,4572
2017-06-14T04:32:54.296Z,3948
2017-06-14T04:33:54.306Z,4396
2017-06-14T04:34:54.336Z,4940
2017-06-14T04:35:54.379Z,5008
2017-06-14T04:36:54.405Z,4960
2017-06-14T04:37:54.416Z,4868
2017-06-14T04:38:54.512Z,4648
2017-06-14T04:39:54.475Z,4748
2017-06-14T04:40:54.512Z,4788
2017-06-14T04:41:54.623Z,4972
2017-06-14T04:42:54.590Z,6388
2017-06-14T04:43:54.756Z,6872
2017-06-14T04:44:54.701Z,8960
2017-06-14T04:45:54.764Z,8288
2017-06-14T04:46:54.789Z,7220
2017-06-14T04:47:54.795Z,6980
2017-06-14T04:48:54.857Z,6220
2017-06-14T04:49:54.885Z,6104
2017-06-14T04:50:54.938Z,7152
2017-06-14T04:51:54.938Z,6372
2017-06-14T04:52:54.968Z,7128
2017-06-14T04:53:54.995Z,5836
2017-06-14T04:54:55.048Z,5276
2017-06-14T04:55:55.103Z,5128
2017-06-14T04:56:55.113Z,5192
2017-06-14T04:57:55.218Z,5376
2017-06-14T04:58:55.220Z,5684
2017-06-14T04:59:55.220Z,7200
2017-06-14T05:00:55.275Z,6884
2017-06-14T05:01:55.366Z,6176
2017-06-14T05:02:55.373Z,6496
2017-06-14T05:03:55.430Z,6752
2017-06-14T05:04:55.392Z,7516
2017-06-14T05:05:55.483Z,8948
2017-06-14T05:06:55.486Z,14912
2017-06-14T05:07:55.526Z,19744
2017-06-14T05:08:55.591Z,17568
2017-06-14T05:09:55.584Z,5220
2017-06-14T05:10:55.623Z,6500
2017-06-14T05:11:55.683Z,8116
2017-06-14T05:12:55.723Z,12272
2017-06-14T05:13:55.837Z,20160
2017-06-14T05:14:55.753Z,11760
2017-06-14T05:15:55.950Z,30144
2017-06-14T05:16:55.856Z,27840
2017-06-14T05:17:55.882Z,21536
2017-06-14T05:18:55.919Z,12516
2017-06-14T05:19:56.004Z,7504
2017-06-14T05:20:56.132Z,6364
2017-06-14T05:21:56.014Z,6136
2017-06-14T05:22:56.113Z,6392
2017-06-14T05:23:56.134Z,12656
2017-06-14T05:24:56.161Z,6336
2017-06-14T05:25:56.187Z,6072
2017-06-14T05:26:56.248Z,5520
2017-06-14T05:27:56.310Z,5864
2017-06-14T05:28:56.311Z,5380
2017-06-14T05:29:56.421Z,5344
2017-06-14T05:30:56.382Z,7132
2017-06-14T05:31:56.449Z,7704
2017-06-14T05:32:56.448Z,7380
2017-06-14T05:33:56.503Z,8316
2017-06-14T05:34:56.535Z,7336
2017-06-14T05:35:56.606Z,11504
2017-06-14T05:36:56.626Z,8700
2017-06-14T05:37:56.698Z,12680
2017-06-14T05:38:56.670Z,10780
2017-06-14T05:39:56.747Z,7448
2017-06-14T05:40:56.741Z,7188
2017-06-14T05:41:56.795Z,6512
2017-06-14T05:42:56.853Z,7140
2017-06-14T05:43:56.872Z,6852
2017-06-14T05:44:56.937Z,6828
2017-06-14T05:45:56.982Z,10440
2017-06-14T05:46:56.993Z,15776
2017-06-14T05:47:57.039Z,16160
2017-06-14T05:48:57.090Z,9848
2017-06-14T05:49:57.119Z,7088
2017-06-14T05:50:57.147Z,6136
2017-06-14T05:51:57.174Z,7352
2017-06-14T05:52:57.236Z,6400
2017-06-14T05:53:57.289Z,9212
2017-06-14T05:54:57.247Z,9488
2017-06-14T05:55:57.322Z,7892
2017-06-14T05:56:57.343Z,7424
2017-06-14T05:57:57.408Z,8036
2017-06-14T05:58:57.474Z,6564
2017-06-14T05:59:57.494Z,5872
2017-06-14T06:00:57.503Z,5504
2017-06-14T06:01:57.546Z,6592
2017-06-14T06:02:57.559Z,6888
2017-06-14T06:03:57.651Z,6240
2017-06-14T06:04:57.663Z,14020
2017-06-14T06:05:57.687Z,18272
2017-06-14T06:06:57.738Z,9892
2017-06-14T06:07:57.743Z,9244
2017-06-14T06:08:57.811Z,11080
2017-06-14T06:09:57.829Z,12372
2017-06-14T06:10:57.920Z,18368
2017-06-14T06:11:57.949Z,32576
2017-06-14T06:12:57.954Z,32992
2017-06-14T06:13:58.059Z,41920
2017-06-14T06:14:57.989Z,32416
2017-06-14T06:15:58.075Z,34496
2017-06-14T06:16:58.130Z,37792
2017-06-14T06:17:58.138Z,36864
2017-06-14T06:18:58.169Z,42880
2017-06-14T06:19:58.321Z,44608
2017-06-14T06:20:58.280Z,39264
2017-06-14T06:21:58.277Z,37824
2017-06-14T06:22:58.373Z,35200
2017-06-14T06:23:58.421Z,40896
2017-06-14T06:24:58.409Z,37696
2017-06-14T06:25:58.513Z,40992
2017-06-14T06:26:58.503Z,41312
2017-06-14T06:27:58.513Z,42848
2017-06-14T06:28:58.573Z,42496
2017-06-14T06:29:58.648Z,38528
2017-06-14T06:30:58.651Z,28224
2017-06-14T06:31:58.692Z,41216
2017-06-14T06:32:58.729Z,36704
2017-06-14T06:33:58.767Z,37536
2017-06-14T06:34:58.835Z,33024
2017-06-14T06:35:58.864Z,26944
2017-06-14T06:36:58.898Z,21408
2017-06-14T06:37:58.976Z,15616
2017-06-14T06:38:59.004Z,12992
2017-06-14T06:39:59.034Z,12640
2017-06-14T06:40:59.109Z,12228
2017-06-14T06:41:59.166Z,11992
2017-06-14T06:42:59.192Z,12372
2017-06-14T06:43:59.209Z,12320
2017-06-14T06:44:59.260Z,12448
2017-06-14T06:45:59.276Z,12060
2017-06-14T06:46:59.336Z,12324
2017-06-14T06:47:59.388Z,12432
2017-06-14T06:48:59.444Z,12136
2017-06-14T06:49:59.464Z,11996
2017-06-14T06:50:59.558Z,12320
2017-06-14T06:51:59.606Z,12536
2017-06-14T06:52:59.594Z,12528
2017-06-14T06:53:59.633Z,12308
2017-06-14T06:54:59.701Z,12036
2017-06-14T06:55:59.712Z,11700
2017-06-14T06:56:59.760Z,12184
2017-06-14T06:57:59.802Z,13148
2017-06-14T06:58:59.844Z,13264
2017-06-14T06:59:59.902Z,13164
2017-06-14T07:01:00.145Z,12768
2017-06-14T07:01:59.994Z,12948
2017-06-14T07:03:00.047Z,13608
2017-06-14T07:04:00.133Z,13056
2017-06-14T07:05:00.085Z,12624
2017-06-14T07:06:00.211Z,12768
2017-06-14T07:07:00.209Z,13112
2017-06-14T07:08:00.299Z,12388
2017-06-14T07:09:00.338Z,12944
2017-06-14T07:10:00.339Z,12892
2017-06-14T07:11:00.422Z,13204
2017-06-14T07:12:00.495Z,15392
2017-06-14T07:13:00.470Z,15840
2017-06-14T07:14:00.580Z,15136
2017-06-14T07:15:00.558Z,14912
2017-06-14T07:16:00.654Z,15296
2017-06-14T07:17:00.653Z,8440
2017-06-14T07:18:00.770Z,7264
2017-06-14T07:19:00.775Z,16864
2017-06-14T07:20:00.934Z,9620
2017-06-14T07:21:00.859Z,17504
2017-06-14T07:22:00.935Z,18528
2017-06-14T07:23:00.972Z,8636
2017-06-14T07:24:01.044Z,6780
2017-06-14T07:25:01.022Z,15136
2017-06-14T07:26:01.102Z,7580
2017-06-14T07:27:01.129Z,15168
2017-06-14T07:28:01.190Z,14944
2017-06-14T07:29:01.225Z,9148
2017-06-14T07:30:01.300Z,9100
2017-06-14T07:31:01.289Z,15168
2017-06-14T07:32:01.391Z,15936
2017-06-14T07:33:01.396Z,9936
2017-06-14T07:34:01.436Z,13280
2017-06-14T07:35:01.476Z,9224
2017-06-14T07:36:01.539Z,8956
2017-06-14T07:37:01.592Z,17184
2017-06-14T07:38:01.661Z,9292
2017-06-14T07:39:01.675Z,15200
2017-06-14T07:40:01.713Z,14688
2017-06-14T07:41:01.737Z,8640
2017-06-14T07:42:01.771Z,17088
2017-06-14T07:43:01.795Z,17472
2017-06-14T07:44:01.933Z,18336
2017-06-14T07:45:01.907Z,20128
2017-06-14T07:46:01.973Z,17280
2017-06-14T07:47:01.976Z,11968
2017-06-14T07:48:02.052Z,17856
2017-06-14T07:49:02.173Z,30400
2017-06-14T07:50:02.128Z,25856
2017-06-14T07:51:02.210Z,7644
2017-06-14T07:52:02.218Z,6128
2017-06-14T07:53:02.291Z,5844
2017-06-14T07:54:02.375Z,5208
2017-06-14T07:55:02.428Z,6048
2017-06-14T07:56:02.438Z,9780
2017-06-14T07:57:02.472Z,59104
2017-06-14T07:58:02.533Z,12304
2017-06-14T07:59:02.613Z,61440
2017-06-14T08:00:02.597Z,8540
2017-06-14T08:01:02.935Z,9144
2017-06-14T08:02:02.673Z,8488
2017-06-14T08:03:02.776Z,8480
2017-06-14T08:04:02.809Z,7572
2017-06-14T08:05:02.807Z,8100
2017-06-14T08:06:02.896Z,8480
2017-06-14T08:07:02.907Z,45600
2017-06-14T08:08:02.961Z,9916
2017-06-14T08:09:02.964Z,6868
2017-06-14T08:10:03.044Z,8536
2017-06-14T08:11:03.070Z,45376
2017-06-14T08:12:03.115Z,45440
2017-06-14T08:13:03.146Z,54112
2017-06-14T08:14:03.215Z,18560
2017-06-14T08:15:03.232Z,54176
2017-06-14T08:16:03.254Z,23456
2017-06-14T08:17:03.323Z,59744
2017-06-14T08:18:03.394Z,66560
2017-06-14T08:19:03.387Z,10772
2017-06-14T08:20:03.466Z,28448
2017-06-14T08:21:03.517Z,53920
2017-06-14T08:22:03.763Z,52704
2017-06-14T08:23:03.604Z,33408
2017-06-14T08:24:03.635Z,33792
2017-06-14T08:25:03.681Z,18208
2017-06-14T08:26:03.746Z,12892
2017-06-14T08:27:03.734Z,11028
2017-06-14T08:28:03.829Z,9220
2017-06-14T08:29:03.900Z,6764
2017-06-14T08:30:03.881Z,5484
2017-06-14T08:31:03.959Z,5260
2017-06-14T08:32:03.979Z,5016
2017-06-14T08:33:04.048Z,5376
2017-06-14T08:34:04.064Z,6396
2017-06-14T08:35:04.114Z,7048
2017-06-14T08:36:04.133Z,7904
2017-06-14T08:37:04.144Z,9096
2017-06-14T08:38:04.231Z,9756
2017-06-14T08:39:04.341Z,10944
2017-06-14T08:40:04.660Z,39456
2017-06-14T08:41:04.359Z,8560
2017-06-14T08:42:04.443Z,7592
2017-06-14T08:43:04.463Z,6136
2017-06-14T08:44:04.468Z,6748
2017-06-14T08:45:04.502Z,10548
2017-06-14T08:46:04.596Z,60320
2017-06-14T08:47:04.629Z,18336
2017-06-14T08:48:04.700Z,44576
2017-06-14T08:49:04.701Z,28096
2017-06-14T08:50:04.788Z,21952
2017-06-14T08:51:04.808Z,59936
2017-06-14T08:52:04.794Z,57440
2017-06-14T08:53:04.876Z,55424
2017-06-14T08:54:04.943Z,12280
2017-06-14T08:55:04.977Z,9848
2017-06-14T08:56:05.058Z,8404
2017-06-14T08:57:05.041Z,7292
2017-06-14T08:58:05.082Z,6224
2017-06-14T08:59:05.179Z,5840
2017-06-14T09:00:05.214Z,7040
2017-06-14T09:01:08.284Z,11264
2017-06-14T09:02:05.344Z,50304
2017-06-14T09:03:05.451Z,9840
2017-06-14T09:04:05.350Z,53920
2017-06-14T09:05:05.447Z,53888
2017-06-14T09:06:05.444Z,57088
2017-06-14T09:07:05.488Z,66144
2017-06-14T09:08:05.513Z,42592
2017-06-14T09:09:05.698Z,78240
2017-06-14T09:10:05.557Z,15456
2017-06-14T09:11:05.632Z,10604
2017-06-14T09:12:05.704Z,71872
2017-06-14T09:13:05.700Z,36032
2017-06-14T09:14:05.802Z,24416
2017-06-14T09:15:05.889Z,14948
2017-06-14T09:16:05.924Z,10128
2017-06-14T09:17:05.934Z,8976
2017-06-14T09:18:06.040Z,8024
2017-06-14T09:19:06.207Z,7780
2017-06-14T09:20:06.035Z,8948
2017-06-14T09:21:06.067Z,12216
2017-06-14T09:22:06.119Z,12596
2017-06-14T09:23:06.391Z,11680
2017-06-14T09:24:06.243Z,60544
2017-06-14T09:25:06.240Z,10576
2017-06-14T09:26:06.286Z,10104
2017-06-14T09:27:06.394Z,13920
2017-06-14T09:28:06.429Z,74624
2017-06-14T09:29:06.413Z,16256
2017-06-14T09:30:06.455Z,10364
2017-06-14T09:31:06.534Z,35872
2017-06-14T09:32:06.564Z,47232
2017-06-14T09:33:06.592Z,52128
2017-06-14T09:34:06.664Z,66848
2017-06-14T09:35:06.694Z,75104
2017-06-14T09:36:06.775Z,68704
2017-06-14T09:37:06.794Z,64288
2017-06-14T09:38:06.851Z,64608
2017-06-14T09:39:06.940Z,61856
2017-06-14T09:40:06.909Z,30944
2017-06-14T09:41:06.936Z,49440
2017-06-14T09:42:06.994Z,9412
2017-06-14T09:43:07.044Z,39968
2017-06-14T09:44:07.110Z,14844
2017-06-14T09:45:07.187Z,10388
2017-06-14T09:46:07.204Z,10416
2017-06-14T09:47:07.264Z,11064
2017-06-14T09:48:07.282Z,33568
2017-06-14T09:49:07.318Z,30880
2017-06-14T09:50:07.405Z,30720
2017-06-14T09:51:07.397Z,29056
2017-06-14T09:52:07.460Z,23424
2017-06-14T09:53:07.563Z,20256
2017-06-14T09:54:07.535Z,20128
2017-06-14T09:55:07.605Z,19680
2017-06-14T09:56:07.621Z,19616
2017-06-14T09:57:07.709Z,19392
2017-06-14T09:58:07.828Z,19008
2017-06-14T09:59:07.804Z,19552
2017-06-14T10:00:08.026Z,19968
2017-06-14T10:01:17.582Z,20000
2017-06-14T10:02:08.146Z,20032
2017-06-14T10:03:08.006Z,20608
2017-06-14T10:04:08.056Z,22432
2017-06-14T10:05:08.118Z,9480
2017-06-14T10:06:08.161Z,21184
2017-06-14T10:07:08.200Z,16032
2017-06-14T10:08:08.255Z,21504
2017-06-14T10:09:08.317Z,18560
2017-06-14T10:10:08.351Z,18048
2017-06-14T10:11:08.394Z,18336
2017-06-14T10:12:08.431Z,20512
2017-06-14T10:13:08.477Z,20000
2017-06-14T10:14:08.540Z,16928
2017-06-14T10:15:08.557Z,16352
2017-06-14T10:16:08.666Z,16160
2017-06-14T10:17:08.712Z,13368
2017-06-14T10:18:08.720Z,17280
2017-06-14T10:19:08.821Z,8600
2017-06-14T10:20:08.866Z,18432
2017-06-14T10:21:08.884Z,18208
2017-06-14T10:22:08.950Z,17696
2017-06-14T10:23:08.958Z,17344
2017-06-14T10:24:09.050Z,17664
2017-06-14T10:25:09.101Z,17312
2017-06-14T10:26:09.154Z,20128
2017-06-14T10:27:09.170Z,9244
2017-06-14T10:28:09.228Z,19136
2017-06-14T10:29:09.265Z,7412
2017-06-14T10:30:09.515Z,16384
2017-06-14T10:31:09.413Z,15552
2017-06-14T10:32:09.418Z,17728
2017-06-14T10:33:09.530Z,18592
2017-06-14T10:34:09.549Z,19072
2017-06-14T10:35:09.524Z,17440
2017-06-14T10:36:09.569Z,11236
2017-06-14T10:37:09.713Z,12460
2017-06-14T10:38:09.702Z,17024
2017-06-14T10:39:09.726Z,16288
2017-06-14T10:40:09.813Z,6900
2017-06-14T10:41:09.816Z,16672
2017-06-14T10:42:09.890Z,15520
2017-06-14T10:43:09.915Z,15104
2017-06-14T10:44:10.029Z,14912
2017-06-14T10:45:09.971Z,15872
2017-06-14T10:46:10.072Z,16512
2017-06-14T10:47:10.050Z,16352
2017-06-14T10:48:10.166Z,16800
2017-06-14T10:49:10.158Z,16544
2017-06-14T10:50:10.257Z,15872
2017-06-14T10:51:10.280Z,13728
2017-06-14T10:52:10.361Z,11444
2017-06-14T10:53:10.372Z,9472
2017-06-14T10:54:10.424Z,8232
2017-06-14T10:55:10.435Z,7776
2017-06-14T10:56:10.541Z,7168
2017-06-14T10:57:10.553Z,6448
2017-06-14T10:58:10.552Z,6068
2017-06-14T10:59:10.643Z,5972
2017-06-14T11:00:10.707Z,5892
2017-06-14T11:01:19.210Z,5620
2017-06-14T11:02:10.885Z,5660
2017-06-14T11:03:10.974Z,5640
2017-06-14T11:04:10.849Z,5596
2017-06-14T11:05:10.886Z,5624
2017-06-14T11:06:11.009Z,5604
2017-06-14T11:07:10.962Z,6428
2017-06-14T11:08:11.025Z,6648
2017-06-14T11:09:11.022Z,7076
2017-06-14T11:10:11.087Z,6640
2017-06-14T11:11:11.155Z,6404
2017-06-14T11:12:11.172Z,6320
2017-06-14T11:13:11.170Z,6192
2017-06-14T11:14:11.481Z,5260
2017-06-14T11:15:11.311Z,6388
2017-06-14T11:16:11.316Z,7508
2017-06-14T11:17:11.383Z,7108
2017-06-14T11:18:11.654Z,6756
2017-06-14T11:19:11.486Z,6676
2017-06-14T11:20:11.536Z,6844
2017-06-14T11:21:11.532Z,7016
2017-06-14T11:22:11.620Z,7036
2017-06-14T11:23:11.645Z,7480
2017-06-14T11:24:11.647Z,7084
2017-06-14T11:25:11.966Z,7444
2017-06-14T11:26:11.791Z,7032
2017-06-14T11:27:11.785Z,6360
2017-06-14T11:28:11.891Z,5656
2017-06-14T11:29:11.892Z,4932
2017-06-14T11:30:11.928Z,4724
2017-06-14T11:31:11.952Z,4892
2017-06-14T11:32:11.976Z,5020
2017-06-14T11:33:12.084Z,5156
2017-06-14T11:34:12.080Z,5264
2017-06-14T11:35:12.125Z,5076
2017-06-14T11:36:12.189Z,4528
2017-06-14T11:37:12.244Z,4088
2017-06-14T11:38:12.351Z,4520
2017-06-14T11:39:12.329Z,4784
2017-06-14T11:40:12.325Z,4720
2017-06-14T11:41:12.358Z,4372
2017-06-14T11:42:12.378Z,3828
2017-06-14T11:43:12.472Z,3516
2017-06-14T11:44:12.503Z,3344
2017-06-14T11:45:12.550Z,3200
2017-06-14T11:46:12.546Z,3064
2017-06-14T11:47:12.613Z,3048
2017-06-14T11:48:12.659Z,3352
2017-06-14T11:49:12.686Z,3560
2017-06-14T11:50:12.757Z,3472
2017-06-14T11:51:12.792Z,3444
2017-06-14T11:52:12.834Z,4416
2017-06-14T11:53:12.828Z,4332
2017-06-14T11:54:12.921Z,5620
2017-06-14T11:55:12.913Z,6980
2017-06-14T11:56:12.976Z,7448
2017-06-14T11:57:13.050Z,7300
2017-06-14T11:58:13.128Z,7064
2017-06-14T11:59:13.125Z,6688
2017-06-14T12:00:13.158Z,6412
2017-06-14T12:01:13.264Z,6488
2017-06-14T12:02:13.284Z,6276
2017-06-14T12:03:13.292Z,6012
2017-06-14T12:04:13.318Z,5824
2017-06-14T12:05:13.282Z,5740
2017-06-14T12:06:13.397Z,5936
2017-06-14T12:07:13.432Z,6116
2017-06-14T12:08:13.496Z,6336
2017-06-14T12:09:13.498Z,6464
2017-06-14T12:10:13.542Z,6576
2017-06-14T12:11:13.616Z,6496
2017-06-14T12:12:13.618Z,6044
2017-06-14T12:13:13.696Z,5572
2017-06-14T12:14:13.735Z,5268
2017-06-14T12:15:13.747Z,5236
2017-06-14T12:16:13.761Z,5212
2017-06-14T12:17:13.817Z,5524
2017-06-14T12:18:13.842Z,5996
2017-06-14T12:19:13.899Z,6400
2017-06-14T12:20:14.025Z,6936
2017-06-14T12:21:13.968Z,6968
2017-06-14T12:22:14.036Z,6508
2017-06-14T12:23:14.060Z,5540
2017-06-14T12:24:14.120Z,5260
2017-06-14T12:25:14.148Z,4980
2017-06-14T12:26:14.170Z,4872
2017-06-14T12:27:14.247Z,4380
2017-06-14T12:28:14.239Z,3864
2017-06-14T12:29:14.276Z,3620
2017-06-14T12:30:14.367Z,3704
2017-06-14T12:31:14.384Z,3636
2017-06-14T12:32:14.380Z,3384
2017-06-14T12:33:14.461Z,3192
2017-06-14T12:34:14.495Z,3172
2017-06-14T12:35:14.598Z,3260
2017-06-14T12:36:14.555Z,3740
2017-06-14T12:37:14.620Z,4568
2017-06-14T12:38:14.656Z,4724
2017-06-14T12:39:14.699Z,4620
2017-06-14T12:40:14.691Z,4136
2017-06-14T12:41:14.770Z,3924
2017-06-14T12:42:14.785Z,4048
2017-06-14T12:43:14.806Z,4108
2017-06-14T12:44:14.913Z,3992
2017-06-14T12:45:14.907Z,3824
2017-06-14T12:46:14.951Z,3416
2017-06-14T12:47:14.985Z,3608
2017-06-14T12:48:15.049Z,3372
2017-06-14T12:49:15.059Z,3116
2017-06-14T12:50:15.128Z,2840
2017-06-14T12:51:15.134Z,2848
2017-06-14T12:52:15.194Z,2780
2017-06-14T12:53:15.230Z,2776
2017-06-14T12:54:15.251Z,2788
2017-06-14T12:55:15.306Z,3256
2017-06-14T12:56:15.381Z,3752
2017-06-14T12:57:15.383Z,3692
2017-06-14T12:58:15.445Z,3476
2017-06-14T12:59:15.431Z,3628
2017-06-14T13:00:15.566Z,3988
2017-06-14T13:01:15.700Z,4100
2017-06-14T13:02:15.584Z,3836
2017-06-14T13:03:15.599Z,4096
2017-06-14T13:04:15.685Z,3852
2017-06-14T13:05:15.727Z,3352
2017-06-14T13:06:15.791Z,3100
2017-06-14T13:07:15.775Z,3160
2017-06-14T13:08:15.824Z,3060
2017-06-14T13:09:15.898Z,2884
2017-06-14T13:10:15.904Z,2648
2017-06-14T13:11:15.874Z,2824
2017-06-14T13:12:15.999Z,2704
2017-06-14T13:13:16.030Z,2652
2017-06-14T13:14:16.075Z,2820
2017-06-14T13:15:16.105Z,2784
2017-06-14T13:16:16.149Z,2432
2017-06-14T13:17:16.210Z,2412
2017-06-14T13:18:16.227Z,2428
2017-06-14T13:19:16.235Z,2148
2017-06-14T13:20:16.274Z,2320
2017-06-14T13:21:16.335Z,2256
2017-06-14T13:22:16.354Z,2264
2017-06-14T13:23:16.431Z,2168
2017-06-14T13:24:16.397Z,2184
2017-06-14T13:25:16.493Z,2144
2017-06-14T13:26:16.562Z,2140
2017-06-14T13:27:16.583Z,2168
2017-06-14T13:28:16.571Z,2228